Airfield :
LOGIN :

Register | Disclaimer

   EN    FR    IT 

 










Legend :    VFR   Marginal VFR   IFR   Intensive IFR   Very Intensive IFR
Visi :
Ceiling :
>= 8 km
>= 3000ft
5 to 8 km
1000 to 3000 ft
1500m to 5 km
500 to 1000 ft
800 to 1500m
200 to 500 ft
< 800m
< 200 ft
Symbols :   Thunderstorms  Fog  Heavy snow  Heavy precipitations  Wind > 20 kt
SIGMETs :     Misc.  Thunderstorms  Icing  Turbulence  Mountain Waves  Volcanic Ashes






- Airport Elevation : 1504 ft
- IATA code : PNA


LEPP - Noain Pamplona

CURRENT METAR :
  • 280600Z 00000KT 9999 FEW018 12/11 Q1019

EXPIRED METARs :
  • 280530Z 00000KT 9999 FEW018 11/10 Q1019
  • 280500Z 00000KT 9999 FEW018 10/09 Q1019
  • 280430Z 00000KT 9999 FEW018 10/09 Q1019
  • 280400Z 00000KT CAVOK 10/09 Q1019
  • 280330Z 00000KT CAVOK 10/09 Q1019

TAF AMD TAF LEPP
Valid from the 28 at 03:00 until the 29 at 03:00 UTC


280304Z 2803/2903 34012KT 9999 FEW035 TX28/2815Z TN12/2805Z
TEMPO 2803/2809 VRB02KT
TEMPO 2810/2821 35015G25KT



MET'MAP, your aeronautical weather chart ! - Copyright ORBIFLY December 2007 - Disclaimer

ORBIFLY MET'MAP TEAM :

Programming & Development : Alexandra Zaïnal
Original concept : Baudouin d'Aumeries
Technical & hardware support : Manuel Goepfert
Assistance : Marc-Olivier Méhu

Contact : metmap@orbifly.com




SOURCES & CREDITS :

   NOAA